sensor_id;sensor_type;location;lat;lon;timestamp;P1;durP1;ratioP1;P2;durP2;ratioP2
46755;SDS011;32506;52.826;-1.192;2024-03-06T00:00:29;9.65;;;4.70;;
46755;SDS011;32506;52.826;-1.192;2024-03-06T00:02:54;7.85;;;4.65;;
46755;SDS011;32506;52.826;-1.192;2024-03-06T00:05:20;8.18;;;4.72;;
46755;SDS011;32506;52.826;-1.192;2024-03-06T00:07:45;7.03;;;4.75;;
46755;SDS011;32506;52.826;-1.192;2024-03-06T00:10:11;7.97;;;4.50;;
46755;SDS011;32506;52.826;-1.192;2024-03-06T00:12:37;10.35;;;5.32;;
46755;SDS011;32506;52.826;-1.192;2024-03-06T00:15:05;8.52;;;5.50;;
46755;SDS011;32506;52.826;-1.192;2024-03-06T00:17:33;9.20;;;4.80;;
46755;SDS011;32506;52.826;-1.192;2024-03-06T00:19:59;8.73;;;4.68;;
46755;SDS011;32506;52.826;-1.192;2024-03-06T00:22:24;9.25;;;5.50;;
46755;SDS011;32506;52.826;-1.192;2024-03-06T00:24:51;10.25;;;5.57;;
46755;SDS011;32506;52.826;-1.192;2024-03-06T00:27:16;8.95;;;4.80;;
46755;SDS011;32506;52.826;-1.192;2024-03-06T00:29:42;9.02;;;4.95;;
46755;SDS011;32506;52.826;-1.192;2024-03-06T00:32:07;8.52;;;5.38;;
46755;SDS011;32506;52.826;-1.192;2024-03-06T00:34:33;7.68;;;5.00;;
46755;SDS011;32506;52.826;-1.192;2024-03-06T00:36:58;8.18;;;5.45;;
46755;SDS011;32506;52.826;-1.192;2024-03-06T00:39:24;7.40;;;4.60;;
46755;SDS011;32506;52.826;-1.192;2024-03-06T00:41:49;8.15;;;4.20;;
46755;SDS011;32506;52.826;-1.192;2024-03-06T00:44:15;7.47;;;4.68;;
46755;SDS011;32506;52.826;-1.192;2024-03-06T00:46:41;7.28;;;4.28;;
46755;SDS011;32506;52.826;-1.192;2024-03-06T00:49:06;8.02;;;5.20;;
46755;SDS011;32506;52.826;-1.192;2024-03-06T00:51:32;7.45;;;4.57;;
46755;SDS011;32506;52.826;-1.192;2024-03-06T00:54:01;7.70;;;4.65;;
46755;SDS011;32506;52.826;-1.192;2024-03-06T00:56:26;8.70;;;5.03;;
46755;SDS011;32506;52.826;-1.192;2024-03-06T00:58:52;8.45;;;4.80;;
46755;SDS011;32506;52.826;-1.192;2024-03-06T01:01:17;8.73;;;4.80;;
46755;SDS011;32506;52.826;-1.192;2024-03-06T01:03:43;7.70;;;5.00;;
46755;SDS011;32506;52.826;-1.192;2024-03-06T01:06:09;9.93;;;4.88;;
46755;SDS011;32506;52.826;-1.192;2024-03-06T01:08:34;8.25;;;4.78;;
46755;SDS011;32506;52.826;-1.192;2024-03-06T01:11:01;6.38;;;4.40;;
46755;SDS011;32506;52.826;-1.192;2024-03-06T01:13:26;10.30;;;4.82;;
46755;SDS011;32506;52.826;-1.192;2024-03-06T01:15:52;8.15;;;4.93;;
46755;SDS011;32506;52.826;-1.192;2024-03-06T01:18:17;8.25;;;4.55;;
46755;SDS011;32506;52.826;-1.192;2024-03-06T01:20:43;9.88;;;5.20;;
46755;SDS011;32506;52.826;-1.192;2024-03-06T01:23:08;7.95;;;4.55;;
46755;SDS011;32506;52.826;-1.192;2024-03-06T01:25:33;8.57;;;4.70;;
46755;SDS011;32506;52.826;-1.192;2024-03-06T01:27:59;9.70;;;4.85;;
46755;SDS011;32506;52.826;-1.192;2024-03-06T01:30:24;8.88;;;4.88;;
46755;SDS011;32506;52.826;-1.192;2024-03-06T01:32:50;7.45;;;4.88;;
46755;SDS011;32506;52.826;-1.192;2024-03-06T01:35:16;8.55;;;5.30;;
46755;SDS011;32506;52.826;-1.192;2024-03-06T01:37:41;9.65;;;4.43;;
46755;SDS011;32506;52.826;-1.192;2024-03-06T01:40:07;10.52;;;4.88;;
46755;SDS011;32506;52.826;-1.192;2024-03-06T01:42:34;8.00;;;4.90;;
46755;SDS011;32506;52.826;-1.192;2024-03-06T01:44:59;9.68;;;4.88;;
46755;SDS011;32506;52.826;-1.192;2024-03-06T01:47:25;7.53;;;4.65;;
46755;SDS011;32506;52.826;-1.192;2024-03-06T01:49:50;8.60;;;5.53;;
46755;SDS011;32506;52.826;-1.192;2024-03-06T01:52:16;8.93;;;4.82;;
46755;SDS011;32506;52.826;-1.192;2024-03-06T01:54:42;7.60;;;4.57;;
46755;SDS011;32506;52.826;-1.192;2024-03-06T01:57:10;7.07;;;4.38;;
46755;SDS011;32506;52.826;-1.192;2024-03-06T01:59:38;7.32;;;4.78;;
46755;SDS011;32506;52.826;-1.192;2024-03-06T02:02:04;9.32;;;5.80;;
46755;SDS011;32506;52.826;-1.192;2024-03-06T02:04:33;8.00;;;4.72;;
46755;SDS011;32506;52.826;-1.192;2024-03-06T02:06:58;8.10;;;4.90;;
46755;SDS011;32506;52.826;-1.192;2024-03-06T02:09:24;7.80;;;4.18;;
46755;SDS011;32506;52.826;-1.192;2024-03-06T02:11:50;9.02;;;5.50;;
46755;SDS011;32506;52.826;-1.192;2024-03-06T02:14:15;8.70;;;5.15;;
46755;SDS011;32506;52.826;-1.192;2024-03-06T02:16:41;9.27;;;4.95;;
46755;SDS011;32506;52.826;-1.192;2024-03-06T02:19:07;8.23;;;5.82;;
46755;SDS011;32506;52.826;-1.192;2024-03-06T02:21:33;9.57;;;5.05;;
46755;SDS011;32506;52.826;-1.192;2024-03-06T02:24:00;10.55;;;5.97;;
46755;SDS011;32506;52.826;-1.192;2024-03-06T02:26:25;9.93;;;6.00;;
46755;SDS011;32506;52.826;-1.192;2024-03-06T02:28:51;7.50;;;4.85;;
46755;SDS011;32506;52.826;-1.192;2024-03-06T02:31:19;8.85;;;4.88;;
46755;SDS011;32506;52.826;-1.192;2024-03-06T02:33:46;8.95;;;4.93;;
46755;SDS011;32506;52.826;-1.192;2024-03-06T02:36:21;8.43;;;5.68;;
46755;SDS011;32506;52.826;-1.192;2024-03-06T02:38:47;8.82;;;5.07;;
46755;SDS011;32506;52.826;-1.192;2024-03-06T02:41:13;12.40;;;6.30;;
46755;SDS011;32506;52.826;-1.192;2024-03-06T02:43:41;9.25;;;5.03;;
46755;SDS011;32506;52.826;-1.192;2024-03-06T02:46:07;9.18;;;5.05;;
46755;SDS011;32506;52.826;-1.192;2024-03-06T02:48:32;9.45;;;5.22;;
46755;SDS011;32506;52.826;-1.192;2024-03-06T02:50:58;8.73;;;5.43;;
46755;SDS011;32506;52.826;-1.192;2024-03-06T02:53:23;8.50;;;5.18;;
46755;SDS011;32506;52.826;-1.192;2024-03-06T02:55:53;10.18;;;5.40;;
46755;SDS011;32506;52.826;-1.192;2024-03-06T02:58:18;10.55;;;5.75;;
46755;SDS011;32506;52.826;-1.192;2024-03-06T03:00:43;9.68;;;5.85;;
46755;SDS011;32506;52.826;-1.192;2024-03-06T03:03:09;10.68;;;6.28;;
46755;SDS011;32506;52.826;-1.192;2024-03-06T03:05:38;14.05;;;7.57;;
46755;SDS011;32506;52.826;-1.192;2024-03-06T03:08:07;11.20;;;6.30;;
46755;SDS011;32506;52.826;-1.192;2024-03-06T03:10:33;11.07;;;6.60;;
46755;SDS011;32506;52.826;-1.192;2024-03-06T03:13:01;10.18;;;5.53;;
46755;SDS011;32506;52.826;-1.192;2024-03-06T03:15:27;11.05;;;6.43;;
46755;SDS011;32506;52.826;-1.192;2024-03-06T03:17:52;10.70;;;6.30;;
46755;SDS011;32506;52.826;-1.192;2024-03-06T03:20:18;11.32;;;6.13;;
46755;SDS011;32506;52.826;-1.192;2024-03-06T03:22:44;9.38;;;5.75;;
46755;SDS011;32506;52.826;-1.192;2024-03-06T03:25:09;10.15;;;6.50;;
46755;SDS011;32506;52.826;-1.192;2024-03-06T03:27:40;12.15;;;7.13;;
46755;SDS011;32506;52.826;-1.192;2024-03-06T03:30:09;9.40;;;5.72;;
46755;SDS011;32506;52.826;-1.192;2024-03-06T03:32:36;12.02;;;7.10;;
46755;SDS011;32506;52.826;-1.192;2024-03-06T03:35:03;10.27;;;6.25;;
46755;SDS011;32506;52.826;-1.192;2024-03-06T03:37:30;13.60;;;6.43;;
46755;SDS011;32506;52.826;-1.192;2024-03-06T03:39:55;13.48;;;6.80;;
46755;SDS011;32506;52.826;-1.192;2024-03-06T03:42:21;10.00;;;6.10;;
46755;SDS011;32506;52.826;-1.192;2024-03-06T03:44:46;12.75;;;6.45;;
46755;SDS011;32506;52.826;-1.192;2024-03-06T03:47:12;10.40;;;6.35;;
46755;SDS011;32506;52.826;-1.192;2024-03-06T03:49:38;9.07;;;5.72;;
46755;SDS011;32506;52.826;-1.192;2024-03-06T03:52:03;10.88;;;6.43;;
46755;SDS011;32506;52.826;-1.192;2024-03-06T03:54:29;10.95;;;6.25;;
46755;SDS011;32506;52.826;-1.192;2024-03-06T03:56:54;10.57;;;6.50;;
46755;SDS011;32506;52.826;-1.192;2024-03-06T03:59:20;12.95;;;6.95;;
46755;SDS011;32506;52.826;-1.192;2024-03-06T04:01:45;11.20;;;6.93;;
46755;SDS011;32506;52.826;-1.192;2024-03-06T04:04:15;10.93;;;7.20;;
46755;SDS011;32506;52.826;-1.192;2024-03-06T04:06:40;12.98;;;7.25;;
46755;SDS011;32506;52.826;-1.192;2024-03-06T04:09:08;13.52;;;6.45;;
46755;SDS011;32506;52.826;-1.192;2024-03-06T04:11:37;12.15;;;7.50;;
46755;SDS011;32506;52.826;-1.192;2024-03-06T04:14:03;14.18;;;7.18;;
46755;SDS011;32506;52.826;-1.192;2024-03-06T04:16:29;12.82;;;7.30;;
46755;SDS011;32506;52.826;-1.192;2024-03-06T04:18:54;13.05;;;8.10;;
46755;SDS011;32506;52.826;-1.192;2024-03-06T04:21:20;13.60;;;7.85;;
46755;SDS011;32506;52.826;-1.192;2024-03-06T04:23:48;13.40;;;7.97;;
46755;SDS011;32506;52.826;-1.192;2024-03-06T04:26:13;15.80;;;8.50;;
46755;SDS011;32506;52.826;-1.192;2024-03-06T04:28:39;13.95;;;7.75;;
46755;SDS011;32506;52.826;-1.192;2024-03-06T04:31:05;11.90;;;7.93;;
46755;SDS011;32506;52.826;-1.192;2024-03-06T04:33:30;14.52;;;8.48;;
46755;SDS011;32506;52.826;-1.192;2024-03-06T04:35:56;11.65;;;7.32;;
46755;SDS011;32506;52.826;-1.192;2024-03-06T04:38:21;12.70;;;8.38;;
46755;SDS011;32506;52.826;-1.192;2024-03-06T04:40:47;12.38;;;7.82;;
46755;SDS011;32506;52.826;-1.192;2024-03-06T04:43:12;14.48;;;8.13;;
46755;SDS011;32506;52.826;-1.192;2024-03-06T04:45:38;13.88;;;8.60;;
46755;SDS011;32506;52.826;-1.192;2024-03-06T04:48:04;13.13;;;8.30;;
46755;SDS011;32506;52.826;-1.192;2024-03-06T04:50:30;16.45;;;9.27;;
46755;SDS011;32506;52.826;-1.192;2024-03-06T04:52:56;15.23;;;9.05;;
46755;SDS011;32506;52.826;-1.192;2024-03-06T04:55:21;15.32;;;9.57;;
46755;SDS011;32506;52.826;-1.192;2024-03-06T04:57:48;15.55;;;10.10;;
46755;SDS011;32506;52.826;-1.192;2024-03-06T05:00:14;13.95;;;8.77;;
46755;SDS011;32506;52.826;-1.192;2024-03-06T05:02:40;16.13;;;10.32;;
46755;SDS011;32506;52.826;-1.192;2024-03-06T05:05:07;16.63;;;10.68;;
46755;SDS011;32506;52.826;-1.192;2024-03-06T05:07:33;19.55;;;10.27;;
46755;SDS011;32506;52.826;-1.192;2024-03-06T05:09:59;16.23;;;9.88;;
46755;SDS011;32506;52.826;-1.192;2024-03-06T05:12:25;16.67;;;9.30;;
46755;SDS011;32506;52.826;-1.192;2024-03-06T05:14:51;19.13;;;10.73;;
46755;SDS011;32506;52.826;-1.192;2024-03-06T05:17:18;16.30;;;10.20;;
46755;SDS011;32506;52.826;-1.192;2024-03-06T05:19:44;18.83;;;10.90;;
46755;SDS011;32506;52.826;-1.192;2024-03-06T05:22:10;19.27;;;11.68;;
46755;SDS011;32506;52.826;-1.192;2024-03-06T05:24:36;17.33;;;10.13;;
46755;SDS011;32506;52.826;-1.192;2024-03-06T05:27:02;20.30;;;10.38;;
46755;SDS011;32506;52.826;-1.192;2024-03-06T05:29:28;17.30;;;10.45;;
46755;SDS011;32506;52.826;-1.192;2024-03-06T05:31:53;16.90;;;10.13;;
46755;SDS011;32506;52.826;-1.192;2024-03-06T05:34:21;17.73;;;10.98;;
46755;SDS011;32506;52.826;-1.192;2024-03-06T05:36:47;19.88;;;10.85;;
46755;SDS011;32506;52.826;-1.192;2024-03-06T05:39:13;19.63;;;10.55;;
46755;SDS011;32506;52.826;-1.192;2024-03-06T05:41:39;18.65;;;10.90;;
46755;SDS011;32506;52.826;-1.192;2024-03-06T05:44:06;17.45;;;10.52;;
46755;SDS011;32506;52.826;-1.192;2024-03-06T05:46:31;16.38;;;10.82;;
46755;SDS011;32506;52.826;-1.192;2024-03-06T05:48:57;19.75;;;10.70;;
46755;SDS011;32506;52.826;-1.192;2024-03-06T05:51:23;15.07;;;9.40;;
46755;SDS011;32506;52.826;-1.192;2024-03-06T05:53:48;18.52;;;10.95;;
46755;SDS011;32506;52.826;-1.192;2024-03-06T05:56:13;18.83;;;10.73;;
46755;SDS011;32506;52.826;-1.192;2024-03-06T05:58:39;17.02;;;10.82;;
46755;SDS011;32506;52.826;-1.192;2024-03-06T06:01:04;16.05;;;9.95;;
46755;SDS011;32506;52.826;-1.192;2024-03-06T06:03:30;15.20;;;9.43;;
46755;SDS011;32506;52.826;-1.192;2024-03-06T06:05:58;17.75;;;11.23;;
46755;SDS011;32506;52.826;-1.192;2024-03-06T06:08:26;19.20;;;10.55;;
46755;SDS011;32506;52.826;-1.192;2024-03-06T06:10:51;17.98;;;10.63;;
46755;SDS011;32506;52.826;-1.192;2024-03-06T06:13:17;18.15;;;10.93;;
46755;SDS011;32506;52.826;-1.192;2024-03-06T06:15:43;15.88;;;9.90;;
46755;SDS011;32506;52.826;-1.192;2024-03-06T06:18:09;15.60;;;10.05;;
46755;SDS011;32506;52.826;-1.192;2024-03-06T06:20:35;19.77;;;10.52;;
46755;SDS011;32506;52.826;-1.192;2024-03-06T06:23:00;16.20;;;10.13;;
46755;SDS011;32506;52.826;-1.192;2024-03-06T06:25:26;15.90;;;9.82;;
46755;SDS011;32506;52.826;-1.192;2024-03-06T06:27:52;14.80;;;9.90;;
46755;SDS011;32506;52.826;-1.192;2024-03-06T06:30:17;18.63;;;11.45;;
46755;SDS011;32506;52.826;-1.192;2024-03-06T06:32:43;17.95;;;10.88;;
46755;SDS011;32506;52.826;-1.192;2024-03-06T06:35:09;16.65;;;10.93;;
46755;SDS011;32506;52.826;-1.192;2024-03-06T06:37:36;19.05;;;10.50;;
46755;SDS011;32506;52.826;-1.192;2024-03-06T06:40:02;18.65;;;11.52;;
46755;SDS011;32506;52.826;-1.192;2024-03-06T06:42:32;20.33;;;11.38;;
46755;SDS011;32506;52.826;-1.192;2024-03-06T06:44:58;18.52;;;11.43;;
46755;SDS011;32506;52.826;-1.192;2024-03-06T06:47:24;21.52;;;13.07;;
46755;SDS011;32506;52.826;-1.192;2024-03-06T06:49:50;17.75;;;11.30;;
46755;SDS011;32506;52.826;-1.192;2024-03-06T06:52:16;19.35;;;12.57;;
46755;SDS011;32506;52.826;-1.192;2024-03-06T06:54:42;21.95;;;12.40;;
46755;SDS011;32506;52.826;-1.192;2024-03-06T06:57:12;21.88;;;13.02;;
46755;SDS011;32506;52.826;-1.192;2024-03-06T06:59:38;21.70;;;13.23;;
46755;SDS011;32506;52.826;-1.192;2024-03-06T07:02:04;19.77;;;13.35;;
46755;SDS011;32506;52.826;-1.192;2024-03-06T07:04:29;19.67;;;12.32;;
46755;SDS011;32506;52.826;-1.192;2024-03-06T07:06:55;20.65;;;13.13;;
46755;SDS011;32506;52.826;-1.192;2024-03-06T07:09:20;19.48;;;12.27;;
46755;SDS011;32506;52.826;-1.192;2024-03-06T07:11:46;16.60;;;11.43;;
46755;SDS011;32506;52.826;-1.192;2024-03-06T07:14:12;22.05;;;12.73;;
46755;SDS011;32506;52.826;-1.192;2024-03-06T07:16:41;22.45;;;14.88;;
46755;SDS011;32506;52.826;-1.192;2024-03-06T07:19:08;22.73;;;12.65;;
46755;SDS011;32506;52.826;-1.192;2024-03-06T07:21:34;22.33;;;12.80;;
46755;SDS011;32506;52.826;-1.192;2024-03-06T07:23:59;22.98;;;13.32;;
46755;SDS011;32506;52.826;-1.192;2024-03-06T07:26:25;21.25;;;12.93;;
46755;SDS011;32506;52.826;-1.192;2024-03-06T07:28:51;20.25;;;12.60;;
46755;SDS011;32506;52.826;-1.192;2024-03-06T07:31:17;21.48;;;12.50;;
46755;SDS011;32506;52.826;-1.192;2024-03-06T07:33:43;19.30;;;11.68;;
46755;SDS011;32506;52.826;-1.192;2024-03-06T07:36:09;20.30;;;12.88;;
46755;SDS011;32506;52.826;-1.192;2024-03-06T07:38:34;19.92;;;13.32;;
46755;SDS011;32506;52.826;-1.192;2024-03-06T07:41:00;25.85;;;13.75;;
46755;SDS011;32506;52.826;-1.192;2024-03-06T07:43:25;25.40;;;13.35;;
46755;SDS011;32506;52.826;-1.192;2024-03-06T07:45:51;19.35;;;12.27;;
46755;SDS011;32506;52.826;-1.192;2024-03-06T07:48:17;21.45;;;13.07;;
46755;SDS011;32506;52.826;-1.192;2024-03-06T07:50:42;24.98;;;12.85;;
46755;SDS011;32506;52.826;-1.192;2024-03-06T07:53:10;26.38;;;15.18;;
46755;SDS011;32506;52.826;-1.192;2024-03-06T07:55:36;26.42;;;14.93;;
46755;SDS011;32506;52.826;-1.192;2024-03-06T07:58:04;26.67;;;14.10;;
46755;SDS011;32506;52.826;-1.192;2024-03-06T08:00:29;27.88;;;13.18;;
46755;SDS011;32506;52.826;-1.192;2024-03-06T08:02:56;25.40;;;13.98;;
46755;SDS011;32506;52.826;-1.192;2024-03-06T08:05:22;24.23;;;13.82;;
46755;SDS011;32506;52.826;-1.192;2024-03-06T08:07:47;27.23;;;15.77;;
46755;SDS011;32506;52.826;-1.192;2024-03-06T08:10:13;31.23;;;15.88;;
46755;SDS011;32506;52.826;-1.192;2024-03-06T08:12:42;27.80;;;16.10;;
46755;SDS011;32506;52.826;-1.192;2024-03-06T08:15:10;31.85;;;16.13;;
46755;SDS011;32506;52.826;-1.192;2024-03-06T08:17:38;35.38;;;16.73;;
46755;SDS011;32506;52.826;-1.192;2024-03-06T08:20:04;34.08;;;16.52;;
46755;SDS011;32506;52.826;-1.192;2024-03-06T08:22:39;30.95;;;16.42;;
46755;SDS011;32506;52.826;-1.192;2024-03-06T08:25:06;33.45;;;16.83;;
46755;SDS011;32506;52.826;-1.192;2024-03-06T08:27:33;35.75;;;18.75;;
46755;SDS011;32506;52.826;-1.192;2024-03-06T08:29:59;36.33;;;17.17;;
46755;SDS011;32506;52.826;-1.192;2024-03-06T08:32:27;36.28;;;18.02;;
46755;SDS011;32506;52.826;-1.192;2024-03-06T08:34:54;37.90;;;16.55;;
46755;SDS011;32506;52.826;-1.192;2024-03-06T08:37:19;35.45;;;18.33;;
46755;SDS011;32506;52.826;-1.192;2024-03-06T08:39:45;37.50;;;17.58;;
46755;SDS011;32506;52.826;-1.192;2024-03-06T08:42:10;33.25;;;18.52;;
46755;SDS011;32506;52.826;-1.192;2024-03-06T08:44:37;43.85;;;19.40;;
46755;SDS011;32506;52.826;-1.192;2024-03-06T08:47:03;40.95;;;19.08;;
46755;SDS011;32506;52.826;-1.192;2024-03-06T08:49:28;37.00;;;17.98;;
46755;SDS011;32506;52.826;-1.192;2024-03-06T08:51:54;38.60;;;18.30;;
46755;SDS011;32506;52.826;-1.192;2024-03-06T08:54:19;36.92;;;19.02;;
46755;SDS011;32506;52.826;-1.192;2024-03-06T08:56:48;40.30;;;19.90;;
46755;SDS011;32506;52.826;-1.192;2024-03-06T08:59:18;37.67;;;18.60;;
46755;SDS011;32506;52.826;-1.192;2024-03-06T09:01:44;34.78;;;19.70;;
46755;SDS011;32506;52.826;-1.192;2024-03-06T09:04:09;38.40;;;17.83;;
46755;SDS011;32506;52.826;-1.192;2024-03-06T09:06:35;36.50;;;18.33;;
46755;SDS011;32506;52.826;-1.192;2024-03-06T09:09:00;35.97;;;18.33;;
46755;SDS011;32506;52.826;-1.192;2024-03-06T09:11:26;30.15;;;15.85;;
46755;SDS011;32506;52.826;-1.192;2024-03-06T09:13:51;32.40;;;16.95;;
46755;SDS011;32506;52.826;-1.192;2024-03-06T09:16:17;30.42;;;15.20;;
46755;SDS011;32506;52.826;-1.192;2024-03-06T09:18:43;29.67;;;16.17;;
46755;SDS011;32506;52.826;-1.192;2024-03-06T09:21:08;35.95;;;16.77;;
46755;SDS011;32506;52.826;-1.192;2024-03-06T09:23:34;30.05;;;16.33;;
46755;SDS011;32506;52.826;-1.192;2024-03-06T09:25:59;29.40;;;16.20;;
46755;SDS011;32506;52.826;-1.192;2024-03-06T09:28:25;31.85;;;16.42;;
46755;SDS011;32506;52.826;-1.192;2024-03-06T09:30:50;36.20;;;17.33;;
46755;SDS011;32506;52.826;-1.192;2024-03-06T09:33:16;29.08;;;16.17;;
46755;SDS011;32506;52.826;-1.192;2024-03-06T09:35:41;30.95;;;15.93;;
46755;SDS011;32506;52.826;-1.192;2024-03-06T09:38:10;27.30;;;14.27;;
46755;SDS011;32506;52.826;-1.192;2024-03-06T09:40:38;27.17;;;15.57;;
46755;SDS011;32506;52.826;-1.192;2024-03-06T09:43:05;32.25;;;16.88;;
46755;SDS011;32506;52.826;-1.192;2024-03-06T09:45:31;30.65;;;17.45;;
46755;SDS011;32506;52.826;-1.192;2024-03-06T09:47:57;29.42;;;15.90;;
46755;SDS011;32506;52.826;-1.192;2024-03-06T09:50:23;32.97;;;16.98;;
46755;SDS011;32506;52.826;-1.192;2024-03-06T09:52:52;29.55;;;15.82;;
46755;SDS011;32506;52.826;-1.192;2024-03-06T09:55:20;28.27;;;15.98;;
46755;SDS011;32506;52.826;-1.192;2024-03-06T09:57:50;29.52;;;15.32;;
46755;SDS011;32506;52.826;-1.192;2024-03-06T10:00:16;28.73;;;16.05;;
46755;SDS011;32506;52.826;-1.192;2024-03-06T10:02:48;28.35;;;16.05;;
46755;SDS011;32506;52.826;-1.192;2024-03-06T10:05:28;28.13;;;16.48;;
46755;SDS011;32506;52.826;-1.192;2024-03-06T10:07:55;28.08;;;15.43;;
46755;SDS011;32506;52.826;-1.192;2024-03-06T10:10:21;29.23;;;15.82;;
46755;SDS011;32506;52.826;-1.192;2024-03-06T10:12:50;28.55;;;15.10;;
46755;SDS011;32506;52.826;-1.192;2024-03-06T10:15:15;31.88;;;16.77;;
46755;SDS011;32506;52.826;-1.192;2024-03-06T10:17:41;28.60;;;15.95;;
46755;SDS011;32506;52.826;-1.192;2024-03-06T10:20:16;32.83;;;17.05;;
46755;SDS011;32506;52.826;-1.192;2024-03-06T10:22:45;27.80;;;15.65;;
46755;SDS011;32506;52.826;-1.192;2024-03-06T10:25:12;30.58;;;16.27;;
46755;SDS011;32506;52.826;-1.192;2024-03-06T10:27:46;28.00;;;15.88;;
46755;SDS011;32506;52.826;-1.192;2024-03-06T10:30:40;30.58;;;15.48;;
46755;SDS011;32506;52.826;-1.192;2024-03-06T10:33:14;36.00;;;17.52;;
46755;SDS011;32506;52.826;-1.192;2024-03-06T10:35:41;37.03;;;17.70;;
46755;SDS011;32506;52.826;-1.192;2024-03-06T10:38:08;34.72;;;17.63;;
46755;SDS011;32506;52.826;-1.192;2024-03-06T10:40:37;33.95;;;17.17;;
46755;SDS011;32506;52.826;-1.192;2024-03-06T10:43:07;32.47;;;17.02;;
46755;SDS011;32506;52.826;-1.192;2024-03-06T10:48:18;30.60;;;16.48;;
46755;SDS011;32506;52.826;-1.192;2024-03-06T10:50:45;28.27;;;15.13;;
46755;SDS011;32506;52.826;-1.192;2024-03-06T10:53:15;31.73;;;16.00;;
46755;SDS011;32506;52.826;-1.192;2024-03-06T10:55:43;30.00;;;16.60;;
46755;SDS011;32506;52.826;-1.192;2024-03-06T10:58:12;28.80;;;14.73;;
46755;SDS011;32506;52.826;-1.192;2024-03-06T11:00:38;27.48;;;15.52;;
46755;SDS011;32506;52.826;-1.192;2024-03-06T11:03:06;32.20;;;16.88;;
46755;SDS011;32506;52.826;-1.192;2024-03-06T11:05:40;30.08;;;15.43;;
46755;SDS011;32506;52.826;-1.192;2024-03-06T11:08:07;26.15;;;14.32;;
46755;SDS011;32506;52.826;-1.192;2024-03-06T11:10:34;28.58;;;14.07;;
46755;SDS011;32506;52.826;-1.192;2024-03-06T11:13:01;31.17;;;16.27;;
46755;SDS011;32506;52.826;-1.192;2024-03-06T11:15:30;31.55;;;16.98;;
46755;SDS011;32506;52.826;-1.192;2024-03-06T11:17:57;33.70;;;17.92;;
46755;SDS011;32506;52.826;-1.192;2024-03-06T11:20:22;28.48;;;15.68;;
46755;SDS011;32506;52.826;-1.192;2024-03-06T11:28:19;30.50;;;16.83;;
46755;SDS011;32506;52.826;-1.192;2024-03-06T11:30:46;28.15;;;15.18;;
46755;SDS011;32506;52.826;-1.192;2024-03-06T11:33:35;31.48;;;16.13;;
46755;SDS011;32506;52.826;-1.192;2024-03-06T11:38:51;28.08;;;14.38;;
46755;SDS011;32506;52.826;-1.192;2024-03-06T11:41:27;28.90;;;15.60;;
46755;SDS011;32506;52.826;-1.192;2024-03-06T11:43:55;23.40;;;14.23;;
46755;SDS011;32506;52.826;-1.192;2024-03-06T11:46:22;27.95;;;15.70;;
46755;SDS011;32506;52.826;-1.192;2024-03-06T11:49:04;23.85;;;13.27;;
46755;SDS011;32506;52.826;-1.192;2024-03-06T11:51:57;22.55;;;11.93;;
46755;SDS011;32506;52.826;-1.192;2024-03-06T11:54:24;28.67;;;15.57;;
46755;SDS011;32506;52.826;-1.192;2024-03-06T11:56:55;28.25;;;16.88;;
46755;SDS011;32506;52.826;-1.192;2024-03-06T11:59:26;27.23;;;15.10;;
46755;SDS011;32506;52.826;-1.192;2024-03-06T12:01:56;26.75;;;15.40;;
46755;SDS011;32506;52.826;-1.192;2024-03-06T12:04:23;24.73;;;14.23;;
46755;SDS011;32506;52.826;-1.192;2024-03-06T12:06:49;25.08;;;16.08;;
46755;SDS011;32506;52.826;-1.192;2024-03-06T12:09:15;24.05;;;14.18;;
46755;SDS011;32506;52.826;-1.192;2024-03-06T12:11:41;22.90;;;13.45;;
46755;SDS011;32506;52.826;-1.192;2024-03-06T12:14:19;25.30;;;14.10;;
46755;SDS011;32506;52.826;-1.192;2024-03-06T12:16:55;23.92;;;13.07;;
46755;SDS011;32506;52.826;-1.192;2024-03-06T12:19:22;22.17;;;13.48;;
46755;SDS011;32506;52.826;-1.192;2024-03-06T12:21:48;21.85;;;12.98;;
46755;SDS011;32506;52.826;-1.192;2024-03-06T12:24:15;20.35;;;12.77;;
46755;SDS011;32506;52.826;-1.192;2024-03-06T12:26:45;20.27;;;11.93;;
46755;SDS011;32506;52.826;-1.192;2024-03-06T12:29:16;15.80;;;10.63;;
46755;SDS011;32506;52.826;-1.192;2024-03-06T12:31:44;18.88;;;10.55;;
46755;SDS011;32506;52.826;-1.192;2024-03-06T12:34:13;20.27;;;11.32;;
46755;SDS011;32506;52.826;-1.192;2024-03-06T12:36:39;14.85;;;10.05;;
46755;SDS011;32506;52.826;-1.192;2024-03-06T12:39:04;16.42;;;11.27;;
46755;SDS011;32506;52.826;-1.192;2024-03-06T12:41:41;15.70;;;9.63;;
46755;SDS011;32506;52.826;-1.192;2024-03-06T12:44:07;15.57;;;9.68;;
46755;SDS011;32506;52.826;-1.192;2024-03-06T12:46:33;16.48;;;9.00;;
46755;SDS011;32506;52.826;-1.192;2024-03-06T12:48:58;14.60;;;8.27;;
46755;SDS011;32506;52.826;-1.192;2024-03-06T12:51:24;14.27;;;8.52;;
46755;SDS011;32506;52.826;-1.192;2024-03-06T12:53:49;15.20;;;8.25;;
46755;SDS011;32506;52.826;-1.192;2024-03-06T12:56:16;12.07;;;8.23;;
46755;SDS011;32506;52.826;-1.192;2024-03-06T12:58:42;11.40;;;7.90;;
46755;SDS011;32506;52.826;-1.192;2024-03-06T13:01:11;13.13;;;7.53;;
46755;SDS011;32506;52.826;-1.192;2024-03-06T13:03:37;13.98;;;7.88;;
46755;SDS011;32506;52.826;-1.192;2024-03-06T13:06:03;11.13;;;6.85;;
46755;SDS011;32506;52.826;-1.192;2024-03-06T13:08:30;10.10;;;6.35;;
46755;SDS011;32506;52.826;-1.192;2024-03-06T13:10:56;10.07;;;6.32;;
46755;SDS011;32506;52.826;-1.192;2024-03-06T13:13:22;10.45;;;7.25;;
46755;SDS011;32506;52.826;-1.192;2024-03-06T13:18:19;9.45;;;6.18;;
46755;SDS011;32506;52.826;-1.192;2024-03-06T13:20:44;11.32;;;5.93;;
46755;SDS011;32506;52.826;-1.192;2024-03-06T13:23:10;10.35;;;7.15;;
46755;SDS011;32506;52.826;-1.192;2024-03-06T13:25:36;14.80;;;9.60;;
46755;SDS011;32506;52.826;-1.192;2024-03-06T13:28:02;19.33;;;11.73;;
46755;SDS011;32506;52.826;-1.192;2024-03-06T13:30:31;26.88;;;17.05;;
46755;SDS011;32506;52.826;-1.192;2024-03-06T13:32:56;20.55;;;14.88;;
46755;SDS011;32506;52.826;-1.192;2024-03-06T13:35:23;22.65;;;14.02;;
46755;SDS011;32506;52.826;-1.192;2024-03-06T13:37:48;21.00;;;14.20;;
46755;SDS011;32506;52.826;-1.192;2024-03-06T13:40:14;24.35;;;16.33;;
46755;SDS011;32506;52.826;-1.192;2024-03-06T13:42:43;23.58;;;15.70;;
46755;SDS011;32506;52.826;-1.192;2024-03-06T13:45:09;21.85;;;14.43;;
46755;SDS011;32506;52.826;-1.192;2024-03-06T13:47:41;19.33;;;12.25;;
46755;SDS011;32506;52.826;-1.192;2024-03-06T13:50:07;16.77;;;11.68;;
46755;SDS011;32506;52.826;-1.192;2024-03-06T13:52:34;16.23;;;11.45;;
46755;SDS011;32506;52.826;-1.192;2024-03-06T13:55:00;16.95;;;10.52;;
46755;SDS011;32506;52.826;-1.192;2024-03-06T13:57:30;14.80;;;9.73;;
46755;SDS011;32506;52.826;-1.192;2024-03-06T14:00:00;15.90;;;9.50;;
46755;SDS011;32506;52.826;-1.192;2024-03-06T14:02:30;13.90;;;8.65;;
46755;SDS011;32506;52.826;-1.192;2024-03-06T14:04:59;11.82;;;7.22;;
46755;SDS011;32506;52.826;-1.192;2024-03-06T14:07:24;8.93;;;6.07;;
46755;SDS011;32506;52.826;-1.192;2024-03-06T14:09:50;10.48;;;6.85;;
46755;SDS011;32506;52.826;-1.192;2024-03-06T14:12:16;9.57;;;6.57;;
46755;SDS011;32506;52.826;-1.192;2024-03-06T14:14:42;10.60;;;6.25;;
46755;SDS011;32506;52.826;-1.192;2024-03-06T14:17:07;11.15;;;6.63;;
46755;SDS011;32506;52.826;-1.192;2024-03-06T14:19:33;9.40;;;5.88;;
46755;SDS011;32506;52.826;-1.192;2024-03-06T14:21:58;10.65;;;6.10;;
46755;SDS011;32506;52.826;-1.192;2024-03-06T14:24:24;8.43;;;5.10;;
46755;SDS011;32506;52.826;-1.192;2024-03-06T14:26:52;10.20;;;4.45;;
46755;SDS011;32506;52.826;-1.192;2024-03-06T14:29:17;9.93;;;5.05;;